sensor_id;sensor_type;location;lat;lon;timestamp;P1;durP1;ratioP1;P2;durP2;ratioP2
72113;SDS011;59989;46.220;19.888;2023-04-23T00:01:39;1.23;;;0.52;;
72113;SDS011;59989;46.220;19.888;2023-04-23T00:04:50;1.07;;;0.53;;
72113;SDS011;59989;46.220;19.888;2023-04-23T00:07:54;0.90;;;0.30;;
72113;SDS011;59989;46.220;19.888;2023-04-23T00:11:00;0.57;;;0.20;;
72113;SDS011;59989;46.220;19.888;2023-04-23T00:14:03;0.95;;;0.30;;
72113;SDS011;59989;46.220;19.888;2023-04-23T00:17:06;1.15;;;0.52;;
72113;SDS011;59989;46.220;19.888;2023-04-23T00:20:09;0.83;;;0.30;;
72113;SDS011;59989;46.220;19.888;2023-04-23T00:23:14;1.10;;;0.47;;
72113;SDS011;59989;46.220;19.888;2023-04-23T00:26:16;0.85;;;0.22;;
72113;SDS011;59989;46.220;19.888;2023-04-23T00:29:19;0.85;;;0.30;;
72113;SDS011;59989;46.220;19.888;2023-04-23T00:32:22;1.45;;;0.77;;
72113;SDS011;59989;46.220;19.888;2023-04-23T00:35:24;0.60;;;0.20;;
72113;SDS011;59989;46.220;19.888;2023-04-23T00:38:27;0.70;;;0.30;;
72113;SDS011;59989;46.220;19.888;2023-04-23T00:41:29;2.13;;;1.30;;
72113;SDS011;59989;46.220;19.888;2023-04-23T00:44:33;0.98;;;0.30;;
72113;SDS011;59989;46.220;19.888;2023-04-23T00:47:36;1.27;;;0.55;;
72113;SDS011;59989;46.220;19.888;2023-04-23T00:50:40;0.80;;;0.20;;
72113;SDS011;59989;46.220;19.888;2023-04-23T00:53:43;2.10;;;0.60;;
72113;SDS011;59989;46.220;19.888;2023-04-23T00:56:46;0.50;;;0.20;;
72113;SDS011;59989;46.220;19.888;2023-04-23T00:59:49;1.58;;;0.73;;
72113;SDS011;59989;46.220;19.888;2023-04-23T01:02:53;1.23;;;0.52;;
72113;SDS011;59989;46.220;19.888;2023-04-23T01:05:55;0.80;;;0.30;;
72113;SDS011;59989;46.220;19.888;2023-04-23T01:08:59;1.60;;;0.70;;
72113;SDS011;59989;46.220;19.888;2023-04-23T01:12:02;1.65;;;0.75;;
72113;SDS011;59989;46.220;19.888;2023-04-23T01:15:07;0.52;;;0.20;;
72113;SDS011;59989;46.220;19.888;2023-04-23T01:18:10;0.70;;;0.20;;
72113;SDS011;59989;46.220;19.888;2023-04-23T01:21:14;5.63;;;2.63;;
72113;SDS011;59989;46.220;19.888;2023-04-23T01:24:18;0.70;;;0.30;;
72113;SDS011;59989;46.220;19.888;2023-04-23T01:27:21;0.70;;;0.20;;
72113;SDS011;59989;46.220;19.888;2023-04-23T01:30:26;0.50;;;0.20;;
72113;SDS011;59989;46.220;19.888;2023-04-23T01:33:29;0.60;;;0.20;;
72113;SDS011;59989;46.220;19.888;2023-04-23T01:36:32;0.50;;;0.20;;
72113;SDS011;59989;46.220;19.888;2023-04-23T01:39:37;3.30;;;1.40;;
72113;SDS011;59989;46.220;19.888;2023-04-23T01:42:39;0.70;;;0.30;;
72113;SDS011;59989;46.220;19.888;2023-04-23T01:45:42;1.02;;;0.40;;
72113;SDS011;59989;46.220;19.888;2023-04-23T01:48:44;1.08;;;0.32;;
72113;SDS011;59989;46.220;19.888;2023-04-23T01:51:47;1.27;;;0.90;;
72113;SDS011;59989;46.220;19.888;2023-04-23T01:54:50;0.73;;;0.30;;
72113;SDS011;59989;46.220;19.888;2023-04-23T01:57:53;0.85;;;0.28;;
72113;SDS011;59989;46.220;19.888;2023-04-23T02:00:56;1.08;;;0.40;;
72113;SDS011;59989;46.220;19.888;2023-04-23T02:03:59;0.73;;;0.30;;
72113;SDS011;59989;46.220;19.888;2023-04-23T02:07:02;2.40;;;0.70;;
72113;SDS011;59989;46.220;19.888;2023-04-23T02:10:05;2.30;;;0.97;;
72113;SDS011;59989;46.220;19.888;2023-04-23T02:13:10;0.60;;;0.20;;
72113;SDS011;59989;46.220;19.888;2023-04-23T02:16:13;0.88;;;0.38;;
72113;SDS011;59989;46.220;19.888;2023-04-23T02:19:17;4.90;;;2.15;;
72113;SDS011;59989;46.220;19.888;2023-04-23T02:22:20;2.03;;;0.83;;
72113;SDS011;59989;46.220;19.888;2023-04-23T02:25:23;1.57;;;1.00;;
72113;SDS011;59989;46.220;19.888;2023-04-23T02:28:26;1.02;;;0.40;;
72113;SDS011;59989;46.220;19.888;2023-04-23T02:31:29;0.60;;;0.20;;
72113;SDS011;59989;46.220;19.888;2023-04-23T02:34:31;0.60;;;0.20;;
72113;SDS011;59989;46.220;19.888;2023-04-23T02:37:34;3.83;;;1.60;;
72113;SDS011;59989;46.220;19.888;2023-04-23T02:40:38;0.80;;;0.30;;
72113;SDS011;59989;46.220;19.888;2023-04-23T02:43:40;1.05;;;0.43;;
72113;SDS011;59989;46.220;19.888;2023-04-23T02:46:43;2.97;;;1.10;;
72113;SDS011;59989;46.220;19.888;2023-04-23T02:49:46;2.25;;;1.15;;
72113;SDS011;59989;46.220;19.888;2023-04-23T02:52:49;0.60;;;0.20;;
72113;SDS011;59989;46.220;19.888;2023-04-23T02:55:52;0.57;;;0.20;;
72113;SDS011;59989;46.220;19.888;2023-04-23T02:58:55;0.60;;;0.20;;
72113;SDS011;59989;46.220;19.888;2023-04-23T03:01:58;0.70;;;0.28;;
72113;SDS011;59989;46.220;19.888;2023-04-23T03:05:00;0.40;;;0.20;;
72113;SDS011;59989;46.220;19.888;2023-04-23T03:08:03;0.60;;;0.30;;
72113;SDS011;59989;46.220;19.888;2023-04-23T03:11:05;0.60;;;0.20;;
72113;SDS011;59989;46.220;19.888;2023-04-23T03:14:08;3.53;;;2.40;;
72113;SDS011;59989;46.220;19.888;2023-04-23T03:17:11;0.73;;;0.30;;
72113;SDS011;59989;46.220;19.888;2023-04-23T03:20:13;0.43;;;0.20;;
72113;SDS011;59989;46.220;19.888;2023-04-23T03:23:16;0.70;;;0.20;;
72113;SDS011;59989;46.220;19.888;2023-04-23T03:26:20;1.07;;;0.50;;
72113;SDS011;59989;46.220;19.888;2023-04-23T03:29:23;1.33;;;0.68;;
72113;SDS011;59989;46.220;19.888;2023-04-23T03:32:26;0.60;;;0.20;;
72113;SDS011;59989;46.220;19.888;2023-04-23T03:35:28;0.98;;;0.55;;
72113;SDS011;59989;46.220;19.888;2023-04-23T03:38:34;0.70;;;0.20;;
72113;SDS011;59989;46.220;19.888;2023-04-23T03:41:39;0.57;;;0.20;;
72113;SDS011;59989;46.220;19.888;2023-04-23T03:44:43;0.93;;;0.35;;
72113;SDS011;59989;46.220;19.888;2023-04-23T03:47:45;1.02;;;0.40;;
72113;SDS011;59989;46.220;19.888;2023-04-23T03:50:48;1.40;;;1.05;;
72113;SDS011;59989;46.220;19.888;2023-04-23T03:54:10;0.80;;;0.27;;
72113;SDS011;59989;46.220;19.888;2023-04-23T03:57:15;1.43;;;0.60;;
72113;SDS011;59989;46.220;19.888;2023-04-23T04:00:42;0.77;;;0.30;;
72113;SDS011;59989;46.220;19.888;2023-04-23T04:03:45;0.75;;;0.30;;
72113;SDS011;59989;46.220;19.888;2023-04-23T04:06:48;3.58;;;1.23;;
72113;SDS011;59989;46.220;19.888;2023-04-23T04:09:50;0.60;;;0.20;;
72113;SDS011;59989;46.220;19.888;2023-04-23T04:12:53;1.03;;;0.93;;
72113;SDS011;59989;46.220;19.888;2023-04-23T04:15:56;0.40;;;0.20;;
72113;SDS011;59989;46.220;19.888;2023-04-23T04:18:59;1.05;;;0.50;;
72113;SDS011;59989;46.220;19.888;2023-04-23T04:22:02;3.22;;;0.57;;
72113;SDS011;59989;46.220;19.888;2023-04-23T04:25:05;0.77;;;0.37;;
72113;SDS011;59989;46.220;19.888;2023-04-23T04:28:08;0.93;;;0.40;;
72113;SDS011;59989;46.220;19.888;2023-04-23T04:31:13;1.02;;;0.65;;
72113;SDS011;59989;46.220;19.888;2023-04-23T04:34:17;0.52;;;0.20;;
72113;SDS011;59989;46.220;19.888;2023-04-23T04:37:20;2.67;;;2.15;;
72113;SDS011;59989;46.220;19.888;2023-04-23T04:40:22;0.60;;;0.20;;
72113;SDS011;59989;46.220;19.888;2023-04-23T04:43:27;1.17;;;0.53;;
72113;SDS011;59989;46.220;19.888;2023-04-23T04:46:30;1.25;;;0.50;;
72113;SDS011;59989;46.220;19.888;2023-04-23T04:49:33;0.80;;;0.30;;
72113;SDS011;59989;46.220;19.888;2023-04-23T04:52:35;0.55;;;0.20;;
72113;SDS011;59989;46.220;19.888;2023-04-23T04:55:38;0.40;;;0.20;;
72113;SDS011;59989;46.220;19.888;2023-04-23T04:58:41;1.00;;;0.53;;
72113;SDS011;59989;46.220;19.888;2023-04-23T05:01:44;0.75;;;0.30;;
72113;SDS011;59989;46.220;19.888;2023-04-23T05:04:46;0.85;;;0.40;;
72113;SDS011;59989;46.220;19.888;2023-04-23T05:07:49;0.80;;;0.30;;
72113;SDS011;59989;46.220;19.888;2023-04-23T05:10:52;2.00;;;1.03;;
72113;SDS011;59989;46.220;19.888;2023-04-23T05:13:55;1.97;;;1.10;;
72113;SDS011;59989;46.220;19.888;2023-04-23T05:16:58;1.70;;;0.70;;
72113;SDS011;59989;46.220;19.888;2023-04-23T05:20:01;0.93;;;0.45;;
72113;SDS011;59989;46.220;19.888;2023-04-23T05:23:04;0.60;;;0.20;;
72113;SDS011;59989;46.220;19.888;2023-04-23T05:26:07;0.53;;;0.20;;
72113;SDS011;59989;46.220;19.888;2023-04-23T05:29:09;1.20;;;0.80;;
72113;SDS011;59989;46.220;19.888;2023-04-23T05:32:15;2.40;;;1.88;;
72113;SDS011;59989;46.220;19.888;2023-04-23T05:35:18;1.45;;;0.60;;
72113;SDS011;59989;46.220;19.888;2023-04-23T05:38:21;0.80;;;0.30;;
72113;SDS011;59989;46.220;19.888;2023-04-23T05:41:23;0.60;;;0.23;;
72113;SDS011;59989;46.220;19.888;2023-04-23T05:44:27;1.63;;;0.97;;
72113;SDS011;59989;46.220;19.888;2023-04-23T05:47:30;0.60;;;0.20;;
72113;SDS011;59989;46.220;19.888;2023-04-23T05:50:33;1.02;;;0.40;;
72113;SDS011;59989;46.220;19.888;2023-04-23T05:53:35;0.93;;;0.30;;
72113;SDS011;59989;46.220;19.888;2023-04-23T05:56:38;0.87;;;0.30;;
72113;SDS011;59989;46.220;19.888;2023-04-23T05:59:41;1.37;;;0.53;;
72113;SDS011;59989;46.220;19.888;2023-04-23T06:02:44;0.80;;;0.30;;
72113;SDS011;59989;46.220;19.888;2023-04-23T06:05:46;0.60;;;0.20;;
72113;SDS011;59989;46.220;19.888;2023-04-23T06:08:49;1.42;;;1.20;;
72113;SDS011;59989;46.220;19.888;2023-04-23T06:11:52;1.03;;;0.40;;
72113;SDS011;59989;46.220;19.888;2023-04-23T06:14:55;0.70;;;0.30;;
72113;SDS011;59989;46.220;19.888;2023-04-23T06:17:59;2.10;;;0.80;;
72113;SDS011;59989;46.220;19.888;2023-04-23T06:21:02;1.52;;;1.10;;
72113;SDS011;59989;46.220;19.888;2023-04-23T06:24:05;1.20;;;0.50;;
72113;SDS011;59989;46.220;19.888;2023-04-23T06:27:09;0.73;;;0.30;;
72113;SDS011;59989;46.220;19.888;2023-04-23T06:30:17;1.20;;;0.47;;
72113;SDS011;59989;46.220;19.888;2023-04-23T06:33:20;1.02;;;0.40;;
72113;SDS011;59989;46.220;19.888;2023-04-23T06:36:23;1.48;;;0.63;;
72113;SDS011;59989;46.220;19.888;2023-04-23T06:39:26;2.58;;;0.85;;
72113;SDS011;59989;46.220;19.888;2023-04-23T06:42:28;1.40;;;0.53;;
72113;SDS011;59989;46.220;19.888;2023-04-23T06:45:48;1.77;;;0.60;;
72113;SDS011;59989;46.220;19.888;2023-04-23T06:48:50;1.55;;;0.65;;
72113;SDS011;59989;46.220;19.888;2023-04-23T06:51:53;4.28;;;0.65;;
72113;SDS011;59989;46.220;19.888;2023-04-23T06:54:58;1.30;;;0.50;;
72113;SDS011;59989;46.220;19.888;2023-04-23T06:58:01;1.07;;;0.47;;
72113;SDS011;59989;46.220;19.888;2023-04-23T07:01:04;1.40;;;0.67;;
72113;SDS011;59989;46.220;19.888;2023-04-23T07:04:09;1.52;;;0.68;;
72113;SDS011;59989;46.220;19.888;2023-04-23T07:07:12;1.45;;;0.60;;
72113;SDS011;59989;46.220;19.888;2023-04-23T07:10:14;1.60;;;0.60;;
72113;SDS011;59989;46.220;19.888;2023-04-23T07:13:19;1.20;;;0.50;;
72113;SDS011;59989;46.220;19.888;2023-04-23T07:16:21;1.10;;;0.40;;
72113;SDS011;59989;46.220;19.888;2023-04-23T07:19:25;1.90;;;0.55;;
72113;SDS011;59989;46.220;19.888;2023-04-23T07:22:28;2.15;;;0.80;;
72113;SDS011;59989;46.220;19.888;2023-04-23T07:25:31;5.47;;;0.93;;
72113;SDS011;59989;46.220;19.888;2023-04-23T07:28:34;1.30;;;0.50;;
72113;SDS011;59989;46.220;19.888;2023-04-23T07:31:37;4.37;;;1.07;;
72113;SDS011;59989;46.220;19.888;2023-04-23T07:34:42;1.58;;;0.52;;
72113;SDS011;59989;46.220;19.888;2023-04-23T07:37:45;1.73;;;0.75;;
72113;SDS011;59989;46.220;19.888;2023-04-23T07:40:49;1.90;;;0.75;;
72113;SDS011;59989;46.220;19.888;2023-04-23T07:43:52;1.77;;;0.57;;
72113;SDS011;59989;46.220;19.888;2023-04-23T07:46:54;1.80;;;0.60;;
72113;SDS011;59989;46.220;19.888;2023-04-23T07:49:57;1.42;;;0.50;;
72113;SDS011;59989;46.220;19.888;2023-04-23T07:52:59;1.73;;;0.50;;
72113;SDS011;59989;46.220;19.888;2023-04-23T07:56:02;1.20;;;0.40;;
72113;SDS011;59989;46.220;19.888;2023-04-23T07:59:05;1.95;;;0.60;;
72113;SDS011;59989;46.220;19.888;2023-04-23T08:02:07;1.77;;;0.60;;
72113;SDS011;59989;46.220;19.888;2023-04-23T08:05:10;1.40;;;0.50;;
72113;SDS011;59989;46.220;19.888;2023-04-23T08:08:13;1.15;;;0.40;;
72113;SDS011;59989;46.220;19.888;2023-04-23T08:11:16;2.05;;;0.75;;
72113;SDS011;59989;46.220;19.888;2023-04-23T08:14:18;1.45;;;0.50;;
72113;SDS011;59989;46.220;19.888;2023-04-23T08:17:21;1.60;;;0.60;;
72113;SDS011;59989;46.220;19.888;2023-04-23T08:20:24;1.45;;;0.65;;
72113;SDS011;59989;46.220;19.888;2023-04-23T08:23:27;1.75;;;0.70;;
72113;SDS011;59989;46.220;19.888;2023-04-23T08:26:30;1.52;;;0.60;;
72113;SDS011;59989;46.220;19.888;2023-04-23T08:29:33;1.00;;;0.40;;
72113;SDS011;59989;46.220;19.888;2023-04-23T08:32:35;1.40;;;0.57;;
72113;SDS011;59989;46.220;19.888;2023-04-23T08:35:40;2.08;;;0.65;;
72113;SDS011;59989;46.220;19.888;2023-04-23T08:38:43;1.58;;;0.52;;
72113;SDS011;59989;46.220;19.888;2023-04-23T08:41:48;1.85;;;0.73;;
72113;SDS011;59989;46.220;19.888;2023-04-23T08:44:57;3.33;;;1.05;;
72113;SDS011;59989;46.220;19.888;2023-04-23T08:48:00;2.10;;;0.67;;
72113;SDS011;59989;46.220;19.888;2023-04-23T08:51:04;2.25;;;0.80;;
72113;SDS011;59989;46.220;19.888;2023-04-23T08:54:08;1.80;;;0.80;;
72113;SDS011;59989;46.220;19.888;2023-04-23T08:57:15;2.65;;;0.60;;
72113;SDS011;59989;46.220;19.888;2023-04-23T09:00:20;1.75;;;0.75;;
72113;SDS011;59989;46.220;19.888;2023-04-23T09:03:24;1.87;;;0.73;;
72113;SDS011;59989;46.220;19.888;2023-04-23T09:06:28;2.05;;;0.80;;
72113;SDS011;59989;46.220;19.888;2023-04-23T09:09:33;2.10;;;0.90;;
72113;SDS011;59989;46.220;19.888;2023-04-23T09:12:40;2.45;;;1.00;;
72113;SDS011;59989;46.220;19.888;2023-04-23T09:15:43;3.65;;;0.85;;
72113;SDS011;59989;46.220;19.888;2023-04-23T09:18:46;5.60;;;1.23;;
72113;SDS011;59989;46.220;19.888;2023-04-23T09:21:50;2.22;;;0.70;;
72113;SDS011;59989;46.220;19.888;2023-04-23T09:24:53;1.75;;;0.60;;
72113;SDS011;59989;46.220;19.888;2023-04-23T09:27:56;2.03;;;0.77;;
72113;SDS011;59989;46.220;19.888;2023-04-23T09:30:59;1.47;;;0.50;;
72113;SDS011;59989;46.220;19.888;2023-04-23T09:34:02;1.50;;;0.50;;
72113;SDS011;59989;46.220;19.888;2023-04-23T09:37:05;1.45;;;0.50;;
72113;SDS011;59989;46.220;19.888;2023-04-23T09:40:12;1.67;;;0.60;;
72113;SDS011;59989;46.220;19.888;2023-04-23T09:43:16;2.17;;;0.80;;
72113;SDS011;59989;46.220;19.888;2023-04-23T09:46:30;2.38;;;0.63;;
72113;SDS011;59989;46.220;19.888;2023-04-23T09:49:48;1.50;;;0.50;;
72113;SDS011;59989;46.220;19.888;2023-04-23T09:52:54;1.50;;;0.57;;
72113;SDS011;59989;46.220;19.888;2023-04-23T09:55:57;1.88;;;0.65;;
72113;SDS011;59989;46.220;19.888;2023-04-23T09:59:00;2.78;;;1.00;;
72113;SDS011;59989;46.220;19.888;2023-04-23T10:02:05;2.45;;;0.80;;
72113;SDS011;59989;46.220;19.888;2023-04-23T10:05:15;1.80;;;0.60;;
72113;SDS011;59989;46.220;19.888;2023-04-23T10:08:29;1.58;;;0.60;;
72113;SDS011;59989;46.220;19.888;2023-04-23T10:11:33;1.65;;;0.60;;
72113;SDS011;59989;46.220;19.888;2023-04-23T10:14:35;2.22;;;0.80;;
72113;SDS011;59989;46.220;19.888;2023-04-23T10:17:40;2.70;;;1.00;;
72113;SDS011;59989;46.220;19.888;2023-04-23T10:20:43;2.03;;;0.73;;
72113;SDS011;59989;46.220;19.888;2023-04-23T10:23:46;1.80;;;0.60;;
72113;SDS011;59989;46.220;19.888;2023-04-23T10:26:51;1.70;;;0.60;;
72113;SDS011;59989;46.220;19.888;2023-04-23T10:29:57;3.20;;;1.23;;
72113;SDS011;59989;46.220;19.888;2023-04-23T10:33:00;2.50;;;0.85;;
72113;SDS011;59989;46.220;19.888;2023-04-23T10:36:05;2.40;;;0.70;;
72113;SDS011;59989;46.220;19.888;2023-04-23T10:39:08;2.63;;;1.00;;
72113;SDS011;59989;46.220;19.888;2023-04-23T10:42:12;1.80;;;0.68;;
72113;SDS011;59989;46.220;19.888;2023-04-23T10:45:15;1.63;;;0.55;;
72113;SDS011;59989;46.220;19.888;2023-04-23T10:48:22;2.25;;;0.82;;
72113;SDS011;59989;46.220;19.888;2023-04-23T10:51:31;2.23;;;0.90;;
72113;SDS011;59989;46.220;19.888;2023-04-23T10:54:56;2.78;;;0.90;;
72113;SDS011;59989;46.220;19.888;2023-04-23T11:01:05;2.58;;;0.80;;
72113;SDS011;59989;46.220;19.888;2023-04-23T11:04:23;1.85;;;0.73;;
72113;SDS011;59989;46.220;19.888;2023-04-23T11:07:29;2.07;;;0.73;;
72113;SDS011;59989;46.220;19.888;2023-04-23T11:10:33;2.78;;;0.90;;
72113;SDS011;59989;46.220;19.888;2023-04-23T11:13:35;2.05;;;0.77;;
72113;SDS011;59989;46.220;19.888;2023-04-23T11:16:55;2.33;;;0.80;;
72113;SDS011;59989;46.220;19.888;2023-04-23T11:23:05;1.90;;;0.70;;
72113;SDS011;59989;46.220;19.888;2023-04-23T11:26:09;1.50;;;0.60;;
72113;SDS011;59989;46.220;19.888;2023-04-23T11:29:11;1.60;;;0.70;;
72113;SDS011;59989;46.220;19.888;2023-04-23T11:32:16;1.60;;;0.60;;
72113;SDS011;59989;46.220;19.888;2023-04-23T11:35:20;2.50;;;0.80;;
72113;SDS011;59989;46.220;19.888;2023-04-23T11:38:29;1.90;;;0.70;;
72113;SDS011;59989;46.220;19.888;2023-04-23T11:41:35;2.90;;;1.05;;
72113;SDS011;59989;46.220;19.888;2023-04-23T11:44:38;1.73;;;0.63;;
72113;SDS011;59989;46.220;19.888;2023-04-23T11:47:42;1.88;;;0.70;;
72113;SDS011;59989;46.220;19.888;2023-04-23T11:50:47;2.10;;;0.80;;
72113;SDS011;59989;46.220;19.888;2023-04-23T11:53:49;2.73;;;1.00;;
72113;SDS011;59989;46.220;19.888;2023-04-23T11:56:52;2.00;;;0.70;;
72113;SDS011;59989;46.220;19.888;2023-04-23T11:59:56;2.40;;;0.90;;
72113;SDS011;59989;46.220;19.888;2023-04-23T12:02:59;3.30;;;1.20;;
72113;SDS011;59989;46.220;19.888;2023-04-23T12:06:04;3.83;;;1.58;;
72113;SDS011;59989;46.220;19.888;2023-04-23T12:09:07;2.97;;;1.07;;
72113;SDS011;59989;46.220;19.888;2023-04-23T12:12:11;2.47;;;1.02;;
72113;SDS011;59989;46.220;19.888;2023-04-23T12:15:14;2.85;;;1.17;;
72113;SDS011;59989;46.220;19.888;2023-04-23T12:18:17;3.00;;;1.10;;
72113;SDS011;59989;46.220;19.888;2023-04-23T12:21:20;2.92;;;1.13;;
72113;SDS011;59989;46.220;19.888;2023-04-23T12:24:25;2.80;;;1.10;;
72113;SDS011;59989;46.220;19.888;2023-04-23T12:27:29;2.50;;;1.00;;
72113;SDS011;59989;46.220;19.888;2023-04-23T12:30:41;3.17;;;1.25;;
72113;SDS011;59989;46.220;19.888;2023-04-23T12:33:44;3.25;;;1.20;;
72113;SDS011;59989;46.220;19.888;2023-04-23T12:36:48;3.65;;;1.50;;
72113;SDS011;59989;46.220;19.888;2023-04-23T12:39:52;3.17;;;1.17;;
72113;SDS011;59989;46.220;19.888;2023-04-23T12:42:57;3.83;;;1.70;;
72113;SDS011;59989;46.220;19.888;2023-04-23T12:46:00;3.15;;;1.30;;
72113;SDS011;59989;46.220;19.888;2023-04-23T12:49:03;4.05;;;1.73;;
72113;SDS011;59989;46.220;19.888;2023-04-23T12:52:06;3.17;;;1.30;;
72113;SDS011;59989;46.220;19.888;2023-04-23T12:55:10;4.30;;;2.10;;
72113;SDS011;59989;46.220;19.888;2023-04-23T12:58:12;3.50;;;1.40;;
72113;SDS011;59989;46.220;19.888;2023-04-23T13:01:15;3.42;;;1.50;;
72113;SDS011;59989;46.220;19.888;2023-04-23T13:04:18;3.40;;;1.33;;
72113;SDS011;59989;46.220;19.888;2023-04-23T13:07:21;3.72;;;1.50;;
72113;SDS011;59989;46.220;19.888;2023-04-23T13:10:23;3.50;;;1.43;;
72113;SDS011;59989;46.220;19.888;2023-04-23T13:13:26;4.05;;;1.73;;
72113;SDS011;59989;46.220;19.888;2023-04-23T13:16:29;3.60;;;1.60;;
72113;SDS011;59989;46.220;19.888;2023-04-23T13:19:32;3.95;;;1.75;;
72113;SDS011;59989;46.220;19.888;2023-04-23T13:22:36;3.45;;;1.40;;
72113;SDS011;59989;46.220;19.888;2023-04-23T13:25:39;4.03;;;1.60;;
72113;SDS011;59989;46.220;19.888;2023-04-23T13:28:42;4.10;;;1.70;;
72113;SDS011;59989;46.220;19.888;2023-04-23T13:31:45;4.53;;;1.88;;
72113;SDS011;59989;46.220;19.888;2023-04-23T13:34:47;3.70;;;1.60;;
72113;SDS011;59989;46.220;19.888;2023-04-23T13:37:50;4.15;;;1.77;;
72113;SDS011;59989;46.220;19.888;2023-04-23T13:40:53;4.50;;;2.10;;
72113;SDS011;59989;46.220;19.888;2023-04-23T13:43:55;4.97;;;2.30;;
72113;SDS011;59989;46.220;19.888;2023-04-23T13:46:58;5.18;;;2.60;;
72113;SDS011;59989;46.220;19.888;2023-04-23T13:50:01;5.10;;;2.30;;
72113;SDS011;59989;46.220;19.888;2023-04-23T13:53:08;4.97;;;2.30;;
72113;SDS011;59989;46.220;19.888;2023-04-23T13:56:11;4.90;;;2.20;;
72113;SDS011;59989;46.220;19.888;2023-04-23T13:59:14;5.70;;;2.63;;
72113;SDS011;59989;46.220;19.888;2023-04-23T14:02:21;4.65;;;2.15;;
72113;SDS011;59989;46.220;19.888;2023-04-23T14:05:25;4.90;;;2.17;;
72113;SDS011;59989;46.220;19.888;2023-04-23T14:08:27;4.68;;;2.00;;
72113;SDS011;59989;46.220;19.888;2023-04-23T14:11:30;5.30;;;2.50;;
72113;SDS011;59989;46.220;19.888;2023-04-23T14:14:32;5.18;;;2.10;;
72113;SDS011;59989;46.220;19.888;2023-04-23T14:17:36;4.35;;;1.90;;
72113;SDS011;59989;46.220;19.888;2023-04-23T14:20:42;4.90;;;2.20;;
72113;SDS011;59989;46.220;19.888;2023-04-23T14:26:56;4.60;;;2.10;;
72113;SDS011;59989;46.220;19.888;2023-04-23T14:30:00;4.32;;;1.90;;
72113;SDS011;59989;46.220;19.888;2023-04-23T14:33:06;4.80;;;2.10;;
72113;SDS011;59989;46.220;19.888;2023-04-23T14:36:09;5.15;;;2.42;;
72113;SDS011;59989;46.220;19.888;2023-04-23T14:39:12;4.63;;;2.08;;
72113;SDS011;59989;46.220;19.888;2023-04-23T14:42:15;4.10;;;1.70;;
72113;SDS011;59989;46.220;19.888;2023-04-23T14:45:18;5.03;;;2.25;;
72113;SDS011;59989;46.220;19.888;2023-04-23T14:48:21;4.85;;;2.15;;
72113;SDS011;59989;46.220;19.888;2023-04-23T14:51:23;5.10;;;2.17;;
72113;SDS011;59989;46.220;19.888;2023-04-23T14:54:26;4.85;;;2.30;;
72113;SDS011;59989;46.220;19.888;2023-04-23T14:57:29;4.67;;;2.07;;
72113;SDS011;59989;46.220;19.888;2023-04-23T15:00:32;3.67;;;1.48;;
72113;SDS011;59989;46.220;19.888;2023-04-23T15:03:35;5.43;;;1.80;;
72113;SDS011;59989;46.220;19.888;2023-04-23T15:06:38;5.35;;;1.83;;
72113;SDS011;59989;46.220;19.888;2023-04-23T15:09:41;4.63;;;2.10;;
72113;SDS011;59989;46.220;19.888;2023-04-23T15:12:48;4.33;;;1.90;;
72113;SDS011;59989;46.220;19.888;2023-04-23T15:15:54;4.20;;;1.92;;
72113;SDS011;59989;46.220;19.888;2023-04-23T15:19:02;3.70;;;1.63;;
72113;SDS011;59989;46.220;19.888;2023-04-23T15:22:07;3.28;;;1.20;;
72113;SDS011;59989;46.220;19.888;2023-04-23T15:25:10;3.65;;;1.52;;
72113;SDS011;59989;46.220;19.888;2023-04-23T15:28:12;3.17;;;1.17;;
72113;SDS011;59989;46.220;19.888;2023-04-23T15:31:15;2.92;;;1.20;;
72113;SDS011;59989;46.220;19.888;2023-04-23T15:34:18;4.60;;;1.50;;
72113;SDS011;59989;46.220;19.888;2023-04-23T15:37:20;4.28;;;1.75;;
72113;SDS011;59989;46.220;19.888;2023-04-23T15:40:26;3.63;;;1.58;;
72113;SDS011;59989;46.220;19.888;2023-04-23T15:43:30;3.43;;;1.40;;
72113;SDS011;59989;46.220;19.888;2023-04-23T15:46:33;2.63;;;1.10;;
72113;SDS011;59989;46.220;19.888;2023-04-23T15:49:35;2.47;;;0.80;;
72113;SDS011;59989;46.220;19.888;2023-04-23T15:52:38;2.28;;;0.80;;
72113;SDS011;59989;46.220;19.888;2023-04-23T15:55:42;3.10;;;1.00;;
72113;SDS011;59989;46.220;19.888;2023-04-23T15:58:45;2.43;;;0.93;;
72113;SDS011;59989;46.220;19.888;2023-04-23T16:01:47;3.08;;;0.80;;
72113;SDS011;59989;46.220;19.888;2023-04-23T16:04:50;1.73;;;0.60;;
72113;SDS011;59989;46.220;19.888;2023-04-23T16:07:53;1.83;;;0.70;;
72113;SDS011;59989;46.220;19.888;2023-04-23T16:10:56;1.45;;;0.50;;
72113;SDS011;59989;46.220;19.888;2023-04-23T16:14:00;3.30;;;1.07;;
72113;SDS011;59989;46.220;19.888;2023-04-23T16:17:03;1.50;;;0.55;;
72113;SDS011;59989;46.220;19.888;2023-04-23T16:20:06;1.23;;;0.40;;
72113;SDS011;59989;46.220;19.888;2023-04-23T16:23:09;2.50;;;0.70;;
72113;SDS011;59989;46.220;19.888;2023-04-23T16:26:12;2.15;;;0.75;;
72113;SDS011;59989;46.220;19.888;2023-04-23T16:29:15;2.27;;;0.77;;
72113;SDS011;59989;46.220;19.888;2023-04-23T16:32:24;1.67;;;0.57;;
72113;SDS011;59989;46.220;19.888;2023-04-23T16:35:26;1.85;;;0.70;;
72113;SDS011;59989;46.220;19.888;2023-04-23T16:38:29;2.30;;;0.60;;
72113;SDS011;59989;46.220;19.888;2023-04-23T16:41:33;1.67;;;0.63;;
72113;SDS011;59989;46.220;19.888;2023-04-23T16:44:35;2.33;;;0.80;;
72113;SDS011;59989;46.220;19.888;2023-04-23T16:47:38;1.75;;;0.63;;
72113;SDS011;59989;46.220;19.888;2023-04-23T16:50:42;2.20;;;0.75;;
72113;SDS011;59989;46.220;19.888;2023-04-23T16:53:46;1.92;;;0.73;;
72113;SDS011;59989;46.220;19.888;2023-04-23T16:56:49;1.93;;;0.83;;
72113;SDS011;59989;46.220;19.888;2023-04-23T16:59:52;1.87;;;0.70;;
72113;SDS011;59989;46.220;19.888;2023-04-23T17:02:55;3.35;;;0.65;;
72113;SDS011;59989;46.220;19.888;2023-04-23T17:05:59;2.83;;;0.90;;
72113;SDS011;59989;46.220;19.888;2023-04-23T17:09:12;2.08;;;0.77;;
72113;SDS011;59989;46.220;19.888;2023-04-23T17:12:15;0.97;;;0.33;;
72113;SDS011;59989;46.220;19.888;2023-04-23T17:15:17;1.97;;;0.63;;
72113;SDS011;59989;46.220;19.888;2023-04-23T17:18:21;2.35;;;0.80;;
72113;SDS011;59989;46.220;19.888;2023-04-23T17:21:24;2.70;;;1.60;;
72113;SDS011;59989;46.220;19.888;2023-04-23T17:24:28;2.25;;;0.60;;
72113;SDS011;59989;46.220;19.888;2023-04-23T17:27:30;2.00;;;0.60;;
72113;SDS011;59989;46.220;19.888;2023-04-23T17:30:33;1.47;;;0.57;;
72113;SDS011;59989;46.220;19.888;2023-04-23T17:33:37;1.20;;;0.40;;
72113;SDS011;59989;46.220;19.888;2023-04-23T17:36:40;1.50;;;0.40;;
72113;SDS011;59989;46.220;19.888;2023-04-23T17:39:43;1.60;;;0.77;;
72113;SDS011;59989;46.220;19.888;2023-04-23T17:42:46;7.03;;;2.13;;
72113;SDS011;59989;46.220;19.888;2023-04-23T17:45:48;1.50;;;0.50;;
72113;SDS011;59989;46.220;19.888;2023-04-23T17:48:52;2.65;;;1.02;;
72113;SDS011;59989;46.220;19.888;2023-04-23T17:51:55;2.60;;;1.00;;
72113;SDS011;59989;46.220;19.888;2023-04-23T17:54:58;1.88;;;0.60;;
72113;SDS011;59989;46.220;19.888;2023-04-23T17:58:01;1.63;;;0.77;;
72113;SDS011;59989;46.220;19.888;2023-04-23T18:01:07;1.70;;;0.60;;
72113;SDS011;59989;46.220;19.888;2023-04-23T18:04:11;1.42;;;0.50;;
72113;SDS011;59989;46.220;19.888;2023-04-23T18:07:17;1.70;;;0.60;;
72113;SDS011;59989;46.220;19.888;2023-04-23T18:10:20;1.98;;;0.80;;
72113;SDS011;59989;46.220;19.888;2023-04-23T18:13:23;2.20;;;0.60;;
72113;SDS011;59989;46.220;19.888;2023-04-23T18:16:26;2.00;;;1.10;;
72113;SDS011;59989;46.220;19.888;2023-04-23T18:19:29;1.00;;;0.35;;